createdAt,value
2018-10-09T00:00:06.434Z,10.30
2018-10-09T00:02:34.897Z,10.30
2018-10-09T00:05:03.442Z,10.30
2018-10-09T00:07:31.969Z,10.30
2018-10-09T00:10:00.434Z,10.30
2018-10-09T00:12:28.907Z,10.30
2018-10-09T00:14:57.367Z,10.30
2018-10-09T00:17:25.824Z,10.30
2018-10-09T00:19:54.541Z,10.20
2018-10-09T00:22:23.615Z,10.30
2018-10-09T00:24:52.079Z,10.30
2018-10-09T00:27:20.548Z,10.30
2018-10-09T00:29:49.074Z,10.30
2018-10-09T00:32:17.537Z,10.40
2018-10-09T00:34:46.004Z,10.30
2018-10-09T00:37:14.459Z,10.30
2018-10-09T00:39:42.906Z,10.20
2018-10-09T00:42:11.424Z,10.20
2018-10-09T00:44:39.959Z,10.20
2018-10-09T00:47:08.459Z,10.10
2018-10-09T00:49:36.939Z,10.10
2018-10-09T00:52:05.407Z,10.10
2018-10-09T00:54:33.863Z,10.10
2018-10-09T00:57:02.345Z,10.00
2018-10-09T00:59:30.877Z,10.00
2018-10-09T01:01:59.450Z,10.00
2018-10-09T01:04:27.922Z,10.00
2018-10-09T01:06:56.418Z,10.00
2018-10-09T01:09:24.884Z,9.90
2018-10-09T01:11:53.354Z,9.90
2018-10-09T01:14:21.806Z,9.80
2018-10-09T01:16:50.262Z,9.80
2018-10-09T01:19:18.787Z,9.70
2018-10-09T01:21:47.258Z,9.80
2018-10-09T01:24:15.726Z,9.90
2018-10-09T01:26:44.194Z,9.90
2018-10-09T01:29:13.606Z,9.90
2018-10-09T01:31:42.060Z,9.90
2018-10-09T01:34:10.533Z,9.90
2018-10-09T01:36:38.997Z,9.80
2018-10-09T01:39:08.802Z,9.70
2018-10-09T01:41:37.263Z,9.60
2018-10-09T01:44:05.967Z,9.60
2018-10-09T01:46:34.538Z,9.60
2018-10-09T01:49:03.003Z,9.70
2018-10-09T01:51:31.654Z,9.60
2018-10-09T01:54:00.308Z,9.70
2018-10-09T01:56:28.779Z,9.60
2018-10-09T01:58:57.266Z,9.70
2018-10-09T02:01:25.726Z,9.70
2018-10-09T02:03:54.195Z,9.70
2018-10-09T02:06:22.670Z,9.70
2018-10-09T02:08:51.131Z,9.70
2018-10-09T02:11:19.604Z,9.60
2018-10-09T02:13:48.045Z,9.60
2018-10-09T02:16:16.746Z,9.60
2018-10-09T02:18:45.210Z,9.60
2018-10-09T02:21:13.667Z,9.60
2018-10-09T02:23:42.154Z,9.60
2018-10-09T02:26:10.610Z,9.60
2018-10-09T02:28:39.046Z,9.50
2018-10-09T02:31:07.520Z,9.50
2018-10-09T02:33:36.124Z,9.50
2018-10-09T02:36:04.458Z,9.40
2018-10-09T02:38:32.927Z,9.40
2018-10-09T02:41:01.410Z,9.40
2018-10-09T02:43:29.898Z,9.30
2018-10-09T02:45:58.370Z,9.30
2018-10-09T02:48:26.839Z,9.30
2018-10-09T02:50:55.298Z,9.30
2018-10-09T02:53:23.762Z,9.40
2018-10-09T02:55:52.234Z,9.30
2018-10-09T02:58:20.694Z,9.50
2018-10-09T03:00:49.142Z,9.70
2018-10-09T03:03:17.634Z,9.60
2018-10-09T03:05:46.078Z,9.50
2018-10-09T03:08:14.546Z,9.60
2018-10-09T03:10:43.041Z,9.60
2018-10-09T03:13:11.510Z,9.50
2018-10-09T03:15:39.963Z,9.30
2018-10-09T03:18:08.610Z,9.30
2018-10-09T03:20:37.173Z,9.20
2018-10-09T03:23:05.586Z,9.20
2018-10-09T03:25:34.055Z,9.20
2018-10-09T03:28:02.524Z,9.20
2018-10-09T03:30:31.051Z,9.10
2018-10-09T03:32:59.531Z,9.10
2018-10-09T03:35:27.989Z,9.10
2018-10-09T03:37:56.474Z,9.10
2018-10-09T03:40:24.946Z,9.10
2018-10-09T03:42:53.401Z,9.10
2018-10-09T03:45:21.950Z,9.00
2018-10-09T03:47:50.398Z,9.00
2018-10-09T03:50:18.862Z,9.00
2018-10-09T03:52:47.317Z,9.00
2018-10-09T03:55:15.858Z,8.90
2018-10-09T03:57:44.327Z,8.90
2018-10-09T04:00:20.675Z,8.80
2018-10-09T04:02:49.123Z,8.80
2018-10-09T04:05:17.606Z,8.90
2018-10-09T04:07:46.061Z,8.90
2018-10-09T04:10:14.515Z,9.00
2018-10-09T04:12:43.026Z,9.10
2018-10-09T04:15:11.594Z,9.10
2018-10-09T04:17:40.063Z,9.10
2018-10-09T04:20:08.888Z,9.00
2018-10-09T04:22:37.349Z,9.00
2018-10-09T04:25:06.640Z,8.90
2018-10-09T04:27:35.090Z,9.10
2018-10-09T04:30:03.731Z,9.20
2018-10-09T04:32:32.246Z,9.30
2018-10-09T04:35:00.718Z,9.20
2018-10-09T04:37:29.181Z,9.10
2018-10-09T04:39:57.637Z,9.00
2018-10-09T04:42:26.108Z,9.00
2018-10-09T04:44:54.619Z,8.90
2018-10-09T04:47:23.078Z,8.80
2018-10-09T04:49:51.532Z,8.70
2018-10-09T04:52:20.008Z,8.70
2018-10-09T04:54:48.463Z,8.80
2018-10-09T04:57:17.003Z,8.80
2018-10-09T04:59:45.483Z,8.70
2018-10-09T05:02:13.962Z,8.70
2018-10-09T05:04:42.431Z,8.60
2018-10-09T05:07:10.934Z,8.70
2018-10-09T05:09:39.391Z,8.70
2018-10-09T05:12:07.865Z,8.80
2018-10-09T05:14:36.319Z,8.90
2018-10-09T05:17:04.786Z,9.10
2018-10-09T05:19:33.254Z,9.20
2018-10-09T05:22:01.707Z,9.20
2018-10-09T05:24:30.176Z,9.10
2018-10-09T05:26:58.646Z,9.00
2018-10-09T05:29:27.149Z,8.90
2018-10-09T05:31:55.695Z,8.90
2018-10-09T05:34:24.183Z,8.90
2018-10-09T05:36:52.634Z,8.90
2018-10-09T05:39:21.087Z,8.80
2018-10-09T05:41:49.575Z,8.80
2018-10-09T05:44:18.069Z,8.80
2018-10-09T05:46:46.507Z,8.80
2018-10-09T05:49:14.950Z,8.80
2018-10-09T05:51:43.415Z,8.80
2018-10-09T05:54:11.883Z,9.00
2018-10-09T05:56:40.334Z,9.00
2018-10-09T05:59:08.794Z,9.10
2018-10-09T06:01:37.259Z,9.10
2018-10-09T06:04:05.714Z,9.30
2018-10-09T06:06:34.158Z,9.30
2018-10-09T06:09:02.656Z,9.40
2018-10-09T06:11:31.147Z,9.50
2018-10-09T06:13:59.706Z,9.60
2018-10-09T06:16:28.150Z,9.60
2018-10-09T06:18:56.601Z,9.70
2018-10-09T06:21:25.055Z,9.70
2018-10-09T06:23:53.515Z,9.80
2018-10-09T06:26:21.986Z,9.90
2018-10-09T06:28:50.435Z,9.90
2018-10-09T06:31:18.916Z,10.00
2018-10-09T06:33:47.430Z,10.10
2018-10-09T06:36:15.879Z,10.10
2018-10-09T06:38:44.326Z,10.10
2018-10-09T06:41:12.803Z,10.20
2018-10-09T06:43:41.254Z,10.20
2018-10-09T06:46:09.782Z,10.30
2018-10-09T06:48:38.238Z,10.30
2018-10-09T06:51:06.716Z,10.40
2018-10-09T06:53:35.207Z,10.50
2018-10-09T06:56:03.659Z,10.60
2018-10-09T06:58:32.175Z,10.70
2018-10-09T07:01:00.643Z,10.70
2018-10-09T07:03:29.174Z,10.90
2018-10-09T07:05:57.695Z,10.90
2018-10-09T07:08:26.162Z,11.00
2018-10-09T07:10:54.646Z,11.10
2018-10-09T07:13:23.157Z,11.20
2018-10-09T07:15:51.631Z,11.40
2018-10-09T07:18:20.123Z,11.50
2018-10-09T07:20:48.588Z,11.60
2018-10-09T07:23:17.082Z,11.70
2018-10-09T07:25:45.555Z,11.80
2018-10-09T07:28:14.052Z,12.00
2018-10-09T07:30:42.590Z,12.00
2018-10-09T07:33:11.055Z,12.20
2018-10-09T07:35:39.518Z,12.20
2018-10-09T07:38:07.998Z,12.30
2018-10-09T07:40:36.475Z,12.40
2018-10-09T07:43:04.968Z,12.50
2018-10-09T07:45:33.494Z,12.60
2018-10-09T07:48:01.977Z,12.70
2018-10-09T07:50:30.484Z,12.70
2018-10-09T07:52:59.025Z,12.80
2018-10-09T07:55:27.439Z,13.00
2018-10-09T07:57:55.910Z,13.00
2018-10-09T08:00:24.586Z,13.10
2018-10-09T08:02:53.052Z,13.20
2018-10-09T08:05:21.535Z,13.20
2018-10-09T08:07:49.994Z,13.30
2018-10-09T08:10:18.535Z,13.40
2018-10-09T08:12:46.966Z,13.50
2018-10-09T08:15:15.485Z,13.60
2018-10-09T08:17:43.963Z,13.70
2018-10-09T08:20:12.430Z,13.80
2018-10-09T08:22:41.076Z,13.80
2018-10-09T08:25:09.490Z,14.00
2018-10-09T08:27:37.995Z,14.10
2018-10-09T08:30:06.971Z,14.20
2018-10-09T08:32:35.455Z,14.40
2018-10-09T08:35:04.351Z,14.50
2018-10-09T08:37:32.875Z,14.60
2018-10-09T08:40:01.445Z,14.70
2018-10-09T08:42:29.851Z,14.90
2018-10-09T08:44:58.341Z,15.00
2018-10-09T08:47:26.794Z,15.20
2018-10-09T08:49:55.265Z,15.30
2018-10-09T08:52:23.724Z,15.40
2018-10-09T08:54:52.190Z,15.50
2018-10-09T08:57:20.662Z,15.60
2018-10-09T08:59:49.139Z,15.80
2018-10-09T09:02:17.622Z,15.90
2018-10-09T09:04:46.086Z,16.00
2018-10-09T09:07:14.549Z,16.10
2018-10-09T09:09:43.149Z,16.20
2018-10-09T09:12:11.547Z,16.20
2018-10-09T09:14:40.002Z,16.30
2018-10-09T09:17:08.496Z,16.40
2018-10-09T09:19:36.999Z,16.50
2018-10-09T09:22:05.570Z,16.60
2018-10-09T09:24:34.023Z,16.60
2018-10-09T09:27:02.794Z,16.60
2018-10-09T09:29:31.214Z,16.60
2018-10-09T09:31:59.741Z,16.60
2018-10-09T09:34:28.226Z,16.60
2018-10-09T09:36:56.690Z,16.50
2018-10-09T09:39:25.159Z,16.40
2018-10-09T09:41:53.639Z,16.30
2018-10-09T09:44:22.103Z,16.30
2018-10-09T09:46:50.599Z,16.40
2018-10-09T09:49:19.080Z,16.50
2018-10-09T09:51:47.548Z,16.60
2018-10-09T09:54:16.016Z,16.80
2018-10-09T09:56:44.491Z,16.90
2018-10-09T09:59:13.114Z,17.10
2018-10-09T10:01:42.747Z,17.20
2018-10-09T10:04:12.030Z,17.20
2018-10-09T10:06:40.498Z,17.40
2018-10-09T10:09:09.774Z,17.40
2018-10-09T10:11:38.262Z,17.50
2018-10-09T10:14:07.199Z,17.60
2018-10-09T10:16:35.691Z,17.70
2018-10-09T10:19:04.167Z,17.60
2018-10-09T10:21:32.695Z,17.60
2018-10-09T10:24:01.172Z,17.60
2018-10-09T10:26:29.675Z,17.60
2018-10-09T10:28:58.156Z,17.60
2018-10-09T10:31:26.619Z,17.70
2018-10-09T10:33:55.086Z,17.80
2018-10-09T10:36:23.645Z,18.00
2018-10-09T10:38:52.087Z,18.10
2018-10-09T10:41:20.550Z,18.00
2018-10-09T10:43:49.011Z,18.10
2018-10-09T10:46:17.467Z,18.20
2018-10-09T10:48:58.338Z,18.20
2018-10-09T10:51:27.198Z,18.30
2018-10-09T10:53:55.826Z,18.30
2018-10-09T10:56:24.417Z,18.50
2018-10-09T10:58:52.911Z,18.50
2018-10-09T11:01:21.426Z,18.30
2018-10-09T11:03:49.870Z,18.10
2018-10-09T11:06:18.337Z,18.10
2018-10-09T11:08:47.507Z,18.10
2018-10-09T11:11:16.038Z,18.10
2018-10-09T11:13:44.498Z,18.10
2018-10-09T11:16:12.960Z,18.10
2018-10-09T11:18:41.430Z,18.20
2018-10-09T11:21:09.933Z,18.50
2018-10-09T11:23:38.684Z,18.50
2018-10-09T11:26:07.260Z,18.70
2018-10-09T11:28:35.755Z,18.80
2018-10-09T11:31:04.218Z,19.00
2018-10-09T11:33:32.685Z,19.00
2018-10-09T11:36:01.150Z,19.20
2018-10-09T11:38:29.707Z,19.30
2018-10-09T11:40:58.214Z,19.50
2018-10-09T11:43:26.679Z,19.60
2018-10-09T11:45:55.143Z,19.60
2018-10-09T11:48:23.627Z,19.50
2018-10-09T11:50:52.111Z,19.40
2018-10-09T11:53:20.604Z,19.40
2018-10-09T11:55:49.071Z,19.10
2018-10-09T11:58:17.527Z,18.90
2018-10-09T12:00:47.494Z,18.80
2018-10-09T12:03:15.979Z,18.60
2018-10-09T12:05:44.472Z,18.70
2018-10-09T12:08:12.932Z,18.80
2018-10-09T12:10:41.493Z,18.80
2018-10-09T12:13:09.947Z,18.70
2018-10-09T12:15:38.421Z,18.60
2018-10-09T12:18:06.975Z,18.70
2018-10-09T12:20:35.462Z,18.80
2018-10-09T12:23:03.950Z,18.90
2018-10-09T12:25:32.498Z,18.90
2018-10-09T12:28:00.963Z,19.00
2018-10-09T12:30:29.435Z,18.90
2018-10-09T12:32:57.969Z,19.00
2018-10-09T12:35:26.390Z,18.90
2018-10-09T12:37:54.846Z,18.90
2018-10-09T12:40:23.318Z,18.80
2018-10-09T12:42:51.786Z,18.90
2018-10-09T12:45:20.263Z,18.90
2018-10-09T12:47:48.742Z,18.90
2018-10-09T12:50:17.228Z,19.00
2018-10-09T12:52:45.746Z,19.10
2018-10-09T12:55:14.269Z,19.40
2018-10-09T12:57:42.750Z,19.50
2018-10-09T13:00:11.387Z,19.60
2018-10-09T13:02:39.847Z,19.50
2018-10-09T13:05:08.337Z,19.60
2018-10-09T13:07:36.864Z,19.60
2018-10-09T13:10:05.494Z,19.50
2018-10-09T13:12:33.979Z,19.40
2018-10-09T13:15:02.613Z,19.40
2018-10-09T13:17:31.115Z,19.30
2018-10-09T13:19:59.577Z,19.20
2018-10-09T13:22:28.320Z,19.20
2018-10-09T13:24:56.522Z,19.30
2018-10-09T13:27:25.039Z,19.40
2018-10-09T13:29:53.503Z,19.50
2018-10-09T13:32:21.960Z,19.50
2018-10-09T13:34:50.414Z,19.50
2018-10-09T13:37:18.908Z,19.40
2018-10-09T13:39:47.391Z,19.40
2018-10-09T13:42:15.863Z,19.30
2018-10-09T13:44:44.369Z,19.30
2018-10-09T13:47:12.967Z,19.40
2018-10-09T13:49:41.338Z,19.40
2018-10-09T13:52:09.846Z,19.30
2018-10-09T13:54:38.318Z,19.10
2018-10-09T13:57:07.118Z,19.10
2018-10-09T13:59:35.553Z,18.90
2018-10-09T14:02:04.046Z,18.80
2018-10-09T14:04:32.510Z,18.70
2018-10-09T14:07:00.981Z,18.70
2018-10-09T14:09:29.438Z,18.60
2018-10-09T14:11:57.915Z,18.50
2018-10-09T14:14:26.382Z,18.40
2018-10-09T14:16:54.855Z,18.40
2018-10-09T14:19:23.327Z,18.20
2018-10-09T14:21:51.792Z,18.20
2018-10-09T14:24:20.254Z,18.20
2018-10-09T14:26:48.719Z,18.10
2018-10-09T14:29:17.179Z,18.10
2018-10-09T14:31:45.643Z,18.10
2018-10-09T14:34:14.115Z,18.00
2018-10-09T14:36:42.591Z,17.90
2018-10-09T14:39:11.055Z,17.90
2018-10-09T14:41:39.565Z,17.80
2018-10-09T14:44:08.129Z,17.80
2018-10-09T14:46:36.570Z,17.80
2018-10-09T14:49:05.076Z,17.80
2018-10-09T14:51:33.530Z,17.80
2018-10-09T14:54:01.999Z,17.80
2018-10-09T14:56:30.493Z,17.80
2018-10-09T14:58:58.960Z,17.80
2018-10-09T15:01:27.450Z,17.70
2018-10-09T15:03:55.922Z,17.70
2018-10-09T15:06:24.531Z,17.70
2018-10-09T15:08:54.365Z,17.70
2018-10-09T15:11:22.841Z,17.60
2018-10-09T15:13:51.302Z,17.60
2018-10-09T15:16:19.775Z,17.60
2018-10-09T15:18:48.234Z,17.50
2018-10-09T15:21:16.690Z,17.40
2018-10-09T15:23:45.162Z,17.40
2018-10-09T15:26:13.626Z,17.30
2018-10-09T15:28:42.083Z,17.30
2018-10-09T15:31:10.543Z,17.30
2018-10-09T15:33:39.031Z,17.30
2018-10-09T15:36:07.530Z,17.20
2018-10-09T15:38:36.007Z,17.30
2018-10-09T15:41:04.530Z,17.20
2018-10-09T15:43:33.061Z,17.10
2018-10-09T15:46:01.563Z,17.00
2018-10-09T15:48:30.057Z,17.00
2018-10-09T15:50:58.559Z,16.80
2018-10-09T15:53:27.019Z,16.70
2018-10-09T15:55:55.502Z,16.60
2018-10-09T15:58:24.060Z,16.50
2018-10-09T16:00:52.487Z,16.40
2018-10-09T16:03:20.998Z,16.30
2018-10-09T16:05:49.470Z,16.20
2018-10-09T16:08:17.947Z,16.20
2018-10-09T16:10:46.427Z,16.10
2018-10-09T16:13:14.890Z,16.00
2018-10-09T16:15:43.371Z,16.00
2018-10-09T16:18:11.841Z,15.90
2018-10-09T16:20:40.430Z,15.90
2018-10-09T16:23:08.870Z,15.80
2018-10-09T16:25:37.359Z,15.70
2018-10-09T16:28:05.960Z,15.70
2018-10-09T16:30:34.518Z,15.60
2018-10-09T16:33:03.007Z,15.60
2018-10-09T16:35:31.555Z,15.50
2018-10-09T16:38:00.019Z,15.40
2018-10-09T16:40:28.527Z,15.30
2018-10-09T16:42:56.954Z,15.30
2018-10-09T16:45:25.462Z,15.20
2018-10-09T16:47:53.938Z,15.10
2018-10-09T16:50:22.406Z,15.00
2018-10-09T16:52:51.104Z,15.00
2018-10-09T16:55:19.568Z,14.90
2018-10-09T16:57:48.042Z,14.90
2018-10-09T17:00:16.585Z,14.90
2018-10-09T17:02:45.012Z,14.80
2018-10-09T17:05:13.511Z,14.80
2018-10-09T17:07:41.978Z,14.70
2018-10-09T17:10:10.467Z,14.70
2018-10-09T17:12:38.931Z,14.70
2018-10-09T17:15:07.462Z,14.60
2018-10-09T17:17:36.027Z,14.60
2018-10-09T17:20:06.020Z,14.50
2018-10-09T17:22:34.486Z,14.40
2018-10-09T17:25:03.089Z,14.30
2018-10-09T17:27:31.584Z,14.20
2018-10-09T17:30:00.051Z,14.00
2018-10-09T17:32:28.577Z,13.90
2018-10-09T17:34:57.031Z,13.80
2018-10-09T17:37:25.493Z,13.70
2018-10-09T17:39:54.039Z,13.70
2018-10-09T17:42:22.494Z,13.70
2018-10-09T17:44:50.947Z,13.60
2018-10-09T17:47:19.403Z,13.60
2018-10-09T17:49:47.880Z,13.50
2018-10-09T17:52:16.339Z,13.50
2018-10-09T17:54:44.815Z,13.50
2018-10-09T17:57:13.358Z,13.50
2018-10-09T17:59:41.823Z,13.40
2018-10-09T18:02:10.330Z,13.40
2018-10-09T18:04:38.790Z,13.30
2018-10-09T18:07:07.310Z,13.20
2018-10-09T18:09:35.774Z,13.20
2018-10-09T18:12:04.299Z,13.10
2018-10-09T18:14:32.828Z,13.10
2018-10-09T18:17:01.319Z,13.00
2018-10-09T18:19:29.790Z,12.90
2018-10-09T18:21:58.262Z,12.90
2018-10-09T18:24:26.728Z,13.00
2018-10-09T18:26:55.201Z,13.10
2018-10-09T18:29:23.662Z,13.00
2018-10-09T18:31:53.066Z,13.00
2018-10-09T18:34:21.534Z,12.90
2018-10-09T18:36:50.002Z,12.80
2018-10-09T18:39:18.466Z,12.80
2018-10-09T18:41:47.398Z,12.70
2018-10-09T18:44:16.115Z,12.60
2018-10-09T18:46:44.578Z,12.50
2018-10-09T18:49:13.038Z,12.50
2018-10-09T18:51:41.611Z,12.40
2018-10-09T18:54:09.966Z,12.50
2018-10-09T18:56:38.698Z,12.50
2018-10-09T18:59:07.174Z,12.50
2018-10-09T19:01:35.711Z,12.50
2018-10-09T19:04:04.231Z,12.50
2018-10-09T19:06:32.774Z,12.50
2018-10-09T19:09:01.242Z,12.40
2018-10-09T19:11:29.771Z,12.30
2018-10-09T19:13:59.153Z,12.30
2018-10-09T19:16:27.703Z,12.30
2018-10-09T19:18:56.171Z,12.30
2018-10-09T19:21:24.629Z,12.20
2018-10-09T19:23:53.120Z,12.20
2018-10-09T19:26:21.604Z,12.30
2018-10-09T19:28:50.158Z,12.20
2018-10-09T19:31:19.416Z,12.20
2018-10-09T19:33:47.996Z,12.20
2018-10-09T19:36:16.551Z,12.30
2018-10-09T19:38:45.028Z,12.20
2018-10-09T19:41:13.666Z,12.10
2018-10-09T19:43:42.160Z,12.00
2018-10-09T19:46:10.643Z,12.10
2018-10-09T19:48:39.119Z,12.00
2018-10-09T19:51:07.710Z,12.10
2018-10-09T19:53:36.607Z,12.10
2018-10-09T19:56:05.636Z,12.00
2018-10-09T19:58:34.146Z,11.90
2018-10-09T20:01:02.650Z,12.00
2018-10-09T20:03:31.142Z,11.90
2018-10-09T20:05:59.614Z,11.80
2018-10-09T20:08:28.074Z,11.80
2018-10-09T20:10:56.556Z,11.70
2018-10-09T20:13:25.020Z,11.60
2018-10-09T20:15:53.487Z,11.50
2018-10-09T20:18:21.967Z,11.40
2018-10-09T20:20:50.554Z,11.40
2018-10-09T20:23:18.899Z,11.40
2018-10-09T20:25:47.354Z,11.40
2018-10-09T20:28:15.839Z,11.30
2018-10-09T20:30:44.310Z,11.30
2018-10-09T20:33:12.811Z,11.40
2018-10-09T20:35:41.258Z,11.50
2018-10-09T20:38:09.711Z,11.50
2018-10-09T20:40:38.190Z,11.50
2018-10-09T20:43:06.663Z,11.50
2018-10-09T20:45:35.135Z,11.50
2018-10-09T20:48:03.611Z,11.60
2018-10-09T20:50:32.170Z,11.60
2018-10-09T20:53:00.639Z,11.50
2018-10-09T20:55:29.106Z,11.40
2018-10-09T20:57:57.575Z,11.30
2018-10-09T21:00:26.052Z,11.30
2018-10-09T21:02:54.582Z,11.20
2018-10-09T21:05:23.171Z,11.20
2018-10-09T21:07:51.603Z,11.20
2018-10-09T21:10:20.070Z,11.20
2018-10-09T21:12:48.543Z,11.20
2018-10-09T21:15:16.995Z,11.20
2018-10-09T21:17:45.539Z,11.20
2018-10-09T21:20:13.939Z,11.20
2018-10-09T21:22:42.406Z,11.20
2018-10-09T21:25:10.867Z,11.10
2018-10-09T21:27:39.330Z,11.10
2018-10-09T21:30:07.838Z,11.00
2018-10-09T21:32:36.306Z,11.00
2018-10-09T21:35:04.918Z,10.90
2018-10-09T21:37:33.394Z,10.80
2018-10-09T21:40:01.863Z,10.80
2018-10-09T21:42:30.319Z,10.80
2018-10-09T21:44:58.787Z,10.80
2018-10-09T21:47:27.247Z,10.80
2018-10-09T21:49:55.726Z,10.90
2018-10-09T21:52:24.187Z,10.90
2018-10-09T21:54:52.655Z,10.90
2018-10-09T21:57:21.126Z,11.10
2018-10-09T21:59:49.652Z,11.10
2018-10-09T22:02:18.162Z,11.20
2018-10-09T22:04:46.643Z,11.10
2018-10-09T22:07:16.435Z,11.10
2018-10-09T22:09:45.083Z,11.10
2018-10-09T22:12:13.814Z,11.10
2018-10-09T22:14:42.290Z,11.10
2018-10-09T22:17:10.826Z,11.10
2018-10-09T22:19:39.394Z,11.10
2018-10-09T22:22:07.890Z,11.10
2018-10-09T22:24:36.367Z,11.20
2018-10-09T22:27:04.894Z,11.30
2018-10-09T22:29:33.419Z,11.30
2018-10-09T22:32:01.903Z,11.30
2018-10-09T22:34:30.511Z,11.30
2018-10-09T22:36:59.002Z,11.40
2018-10-09T22:39:27.463Z,11.30
2018-10-09T22:41:55.932Z,11.20
2018-10-09T22:44:24.391Z,11.00
2018-10-09T22:46:52.851Z,10.90
2018-10-09T22:49:21.831Z,10.80
2018-10-09T22:51:50.302Z,10.80
2018-10-09T22:54:18.754Z,10.70
2018-10-09T22:56:47.224Z,10.70
2018-10-09T22:59:15.682Z,10.70
2018-10-09T23:01:44.152Z,10.70
2018-10-09T23:04:12.626Z,10.80
2018-10-09T23:06:41.130Z,10.80
2018-10-09T23:09:11.243Z,10.90
2018-10-09T23:11:39.766Z,10.90
2018-10-09T23:14:08.271Z,10.90
2018-10-09T23:16:37.210Z,10.80
2018-10-09T23:19:05.735Z,10.70
2018-10-09T23:21:34.223Z,10.70
2018-10-09T23:24:02.679Z,10.70
2018-10-09T23:26:31.157Z,10.70
2018-10-09T23:28:59.614Z,10.70
2018-10-09T23:31:28.078Z,10.70
2018-10-09T23:33:56.543Z,10.70
2018-10-09T23:36:25.008Z,10.70
2018-10-09T23:38:53.487Z,10.70
2018-10-09T23:41:21.958Z,10.60
2018-10-09T23:43:50.443Z,10.60
2018-10-09T23:46:18.899Z,10.50
2018-10-09T23:48:47.374Z,10.50
2018-10-09T23:51:15.862Z,10.50
2018-10-09T23:53:44.332Z,10.60
2018-10-09T23:56:12.815Z,10.70
2018-10-09T23:58:41.327Z,10.90
